Time;durP1;ratioP1;P1;durP2;ratioP2;P2;SDS_P1;SDS_P2;PMS_P1;PMS_P2;Temp;Humidity;BMP_temperature;BMP_pressure;BME280_temperature;BME280_humidity;BME280_pressure;Samples;Min_cycle;Max_cycle;Signal;HPM_P1;HPM_P2
2023/03/19 00:00:26;;;;;;;;;;;;;;;10.53;100.00;95989.28;5091258;28;19924;-82
2023/03/19 00:02:53;;;;;;;;;;;;;;;10.57;100.00;95995.84;5089923;28;19978;-82
2023/03/19 00:05:20;;;;;;;;;;;;;;;10.58;100.00;95992.09;5108946;27;19938;-83
2023/03/19 00:07:47;;;;;;;;;;;;;;;10.58;100.00;96000.19;5100150;28;19925;-82
2023/03/19 00:10:15;;;;;;;;;;;;;;;10.63;100.00;96006.75;5093521;28;19928;-82
2023/03/19 00:12:42;;;;;;;;;;;;;;;10.58;100.00;95997.47;5083482;28;19932;-82
2023/03/19 00:15:12;;;;;;;;;;;;;;;10.59;100.00;95999.13;5080600;28;19924;-82
2023/03/19 00:17:40;;;;;;;;;;;;;;;10.60;100.00;96003.47;5095265;28;19935;-83
2023/03/19 00:20:07;;;;;;;;;;;;;;;10.57;100.00;96009.34;5086357;28;19932;-82
2023/03/19 00:22:34;;;;;;;;;;;;;;;10.61;100.00;96018.63;5081125;28;19947;-82
2023/03/19 00:25:02;;;;;;;;;;;;;;;10.65;100.00;96018.13;5102921;27;19924;-82
2023/03/19 00:27:30;;;;;;;;;;;;;;;10.66;100.00;96022.47;5084550;28;19928;-82
2023/03/19 00:29:57;;;;;;;;;;;;;;;10.69;100.00;96030.09;5087649;28;19924;-82
2023/03/19 00:32:24;;;;;;;;;;;;;;;10.74;100.00;96027.50;5091087;28;19938;-82
2023/03/19 00:34:51;;;;;;;;;;;;;;;10.72;100.00;96038.53;5093308;28;19924;-82
2023/03/19 00:37:17;;;;;;;;;;;;;;;10.72;100.00;96037.75;5091540;28;19931;-82
2023/03/19 00:39:44;;;;;;;;;;;;;;;10.74;100.00;96043.69;5087324;28;19932;-82
2023/03/19 00:42:11;;;;;;;;;;;;;;;10.75;100.00;96037.25;5088823;28;20010;-82
2023/03/19 00:44:40;;;;;;;;;;;;;;;10.68;100.00;96050.06;5100398;28;19932;-83
2023/03/19 00:47:06;;;;;;;;;;;;;;;10.54;100.00;96050.31;5092162;28;19924;-82
2023/03/19 00:49:34;;;;;;;;;;;;;;;10.48;100.00;96047.72;5087591;28;19924;-82
2023/03/19 00:52:00;;;;;;;;;;;;;;;10.46;100.00;96045.25;5084233;28;19929;-82
2023/03/19 00:54:27;;;;;;;;;;;;;;;10.45;100.00;96043.66;5085585;28;19950;-82
2023/03/19 00:56:54;;;;;;;;;;;;;;;10.43;100.00;96043.06;5094069;28;19931;-83
2023/03/19 00:59:21;;;;;;;;;;;;;;;10.40;100.00;96048.91;5081920;28;19924;-83
2023/03/19 01:01:50;;;;;;;;;;;;;;;10.33;100.00;96056.31;5089926;28;19925;-83
2023/03/19 01:04:17;;;;;;;;;;;;;;;10.35;100.00;96050.69;5087104;28;19946;-82
2023/03/19 01:06:44;;;;;;;;;;;;;;;10.35;100.00;96056.91;5097272;28;20029;-82
2023/03/19 01:09:11;;;;;;;;;;;;;;;10.34;100.00;96065.25;5080868;28;19925;-82
2023/03/19 01:11:38;;;;;;;;;;;;;;;10.33;100.00;96072.50;5084068;28;19925;-82
2023/03/19 01:14:05;;;;;;;;;;;;;;;10.32;100.00;96073.56;5091822;28;19931;-82
2023/03/19 01:16:33;;;;;;;;;;;;;;;10.31;100.00;96077.31;5076355;28;19924;-82
2023/03/19 01:19:01;;;;;;;;;;;;;;;10.29;100.00;96068.66;5098620;28;19928;-83
2023/03/19 01:21:29;;;;;;;;;;;;;;;10.29;100.00;96073.22;5088171;28;19930;-83
2023/03/19 01:23:56;;;;;;;;;;;;;;;10.29;100.00;96074.06;5092741;28;19928;-83
2023/03/19 01:26:24;;;;;;;;;;;;;;;10.27;100.00;96073.47;5086466;28;19924;-83
2023/03/19 01:28:55;;;;;;;;;;;;;;;10.28;100.00;96072.41;5078881;28;19958;-82
2023/03/19 01:31:22;;;;;;;;;;;;;;;10.27;100.00;96073.47;5090270;28;19948;-83
2023/03/19 01:34:22;;;;;;;;;;;;;;;10.29;100.00;96074.06;5086326;28;20077;-83
2023/03/19 01:36:54;;;;;;;;;;;;;;;10.30;100.00;96075.66;5087359;28;19924;-83
2023/03/19 01:39:29;;;;;;;;;;;;;;;10.28;100.00;96075.09;5088660;28;19924;-82
2023/03/19 01:42:00;;;;;;;;;;;;;;;10.17;100.00;96081.28;5084451;28;20040;-83
2023/03/19 01:44:56;;;;;;;;;;;;;;;10.12;100.00;96075.78;5078630;28;19947;-82
2023/03/19 01:47:30;;;;;;;;;;;;;;;10.10;100.00;96078.72;5088404;28;19965;-82
2023/03/19 01:50:26;;;;;;;;;;;;;;;10.05;100.00;96078.56;5080325;28;19969;-82
2023/03/19 01:53:15;;;;;;;;;;;;;;;9.99;100.00;96074.13;5078490;28;19924;-82
2023/03/19 01:56:08;;;;;;;;;;;;;;;9.96;100.00;96079.97;5081199;28;19924;-82
2023/03/19 01:58:51;;;;;;;;;;;;;;;9.88;100.00;96080.31;5089115;28;19935;-82
2023/03/19 02:01:52;;;;;;;;;;;;;;;9.88;100.00;96088.41;5078246;28;19924;-83
2023/03/19 02:04:19;;;;;;;;;;;;;;;9.94;100.00;96086.66;5090738;28;19934;-82
2023/03/19 02:06:47;;;;;;;;;;;;;;;9.99;100.00;96089.47;5086272;28;20067;-83
2023/03/19 02:09:14;;;;;;;;;;;;;;;10.01;100.00;96090.91;5084593;28;20027;-83
2023/03/19 02:11:41;;;;;;;;;;;;;;;9.98;100.00;96094.03;5087218;28;19924;-83
2023/03/19 02:14:09;;;;;;;;;;;;;;;10.00;100.00;96101.91;5080196;28;19946;-82
2023/03/19 02:16:36;;;;;;;;;;;;;;;9.94;100.00;96092.88;5090626;28;20015;-83
2023/03/19 02:19:04;;;;;;;;;;;;;;;9.96;100.00;96098.84;5099687;28;19973;-83
2023/03/19 02:21:31;;;;;;;;;;;;;;;9.98;100.00;96098.63;5084083;28;19932;-83
2023/03/19 02:24:02;;;;;;;;;;;;;;;9.97;100.00;96095.09;5080192;28;19960;-83
2023/03/19 02:26:51;;;;;;;;;;;;;;;9.92;100.00;96097.69;5088038;28;19954;-83
2023/03/19 02:29:18;;;;;;;;;;;;;;;9.94;100.00;96105.53;5088364;28;19923;-82
2023/03/19 02:31:46;;;;;;;;;;;;;;;9.79;100.00;96106.78;5097122;28;19974;-83
2023/03/19 02:34:27;;;;;;;;;;;;;;;9.68;100.00;96113.00;5082360;28;19979;-82
2023/03/19 02:36:56;;;;;;;;;;;;;;;9.68;100.00;96102.22;5092467;28;19924;-83
2023/03/19 02:39:29;;;;;;;;;;;;;;;9.66;100.00;96107.00;5090976;28;19929;-82
2023/03/19 02:41:58;;;;;;;;;;;;;;;9.59;100.00;96111.66;5100971;28;19928;-83
2023/03/19 02:44:26;;;;;;;;;;;;;;;9.56;100.00;96111.28;5088268;28;19993;-82
2023/03/19 02:46:53;;;;;;;;;;;;;;;9.51;100.00;96108.47;5086231;28;19929;-82
2023/03/19 02:49:20;;;;;;;;;;;;;;;9.52;100.00;96108.25;5090732;28;19931;-82
2023/03/19 02:51:46;;;;;;;;;;;;;;;9.52;100.00;96107.44;5090806;28;19924;-82
2023/03/19 02:54:13;;;;;;;;;;;;;;;9.53;100.00;96109.09;5096326;28;19924;-83
2023/03/19 02:56:40;;;;;;;;;;;;;;;9.58;100.00;96109.19;5076817;28;19923;-83
2023/03/19 02:59:08;;;;;;;;;;;;;;;9.59;100.00;96113.53;5088286;28;19928;-83
2023/03/19 03:01:36;;;;;;;;;;;;;;;9.60;100.00;96118.72;5081125;28;19932;-82
2023/03/19 03:04:03;;;;;;;;;;;;;;;9.63;100.00;96122.81;5085502;28;19929;-82
2023/03/19 03:06:31;;;;;;;;;;;;;;;9.61;100.00;96125.72;5089902;28;19924;-83
2023/03/19 03:08:57;;;;;;;;;;;;;;;9.59;100.00;96124.31;5100449;27;19924;-82
2023/03/19 03:11:25;;;;;;;;;;;;;;;9.54;100.00;96118.78;5095406;28;19939;-82
2023/03/19 03:13:51;;;;;;;;;;;;;;;9.51;100.00;96122.78;5079644;28;19938;-82
2023/03/19 03:16:20;;;;;;;;;;;;;;;9.54;100.00;96125.00;5098885;28;19928;-83
2023/03/19 03:18:47;;;;;;;;;;;;;;;9.57;100.00;96124.56;5090823;28;19934;-82
2023/03/19 03:21:14;;;;;;;;;;;;;;;9.58;100.00;96123.50;5084176;28;19924;-83
2023/03/19 03:23:40;;;;;;;;;;;;;;;9.55;100.00;96125.81;5076195;28;20010;-83
2023/03/19 03:26:07;;;;;;;;;;;;;;;9.47;100.00;96127.78;5083114;28;20022;-83
2023/03/19 03:28:34;;;;;;;;;;;;;;;9.40;100.00;96124.38;5084216;28;19977;-82
2023/03/19 03:31:02;;;;;;;;;;;;;;;9.35;100.00;96120.72;5078708;28;19924;-82
2023/03/19 03:33:30;;;;;;;;;;;;;;;9.26;100.00;96124.78;5075883;28;19929;-82
2023/03/19 03:35:57;;;;;;;;;;;;;;;9.13;100.00;96130.31;5084455;28;19931;-82
2023/03/19 03:38:24;;;;;;;;;;;;;;;9.10;100.00;96126.22;5074440;28;19974;-82
2023/03/19 03:40:51;;;;;;;;;;;;;;;9.02;100.00;96126.50;5081896;28;19930;-82
2023/03/19 03:43:19;;;;;;;;;;;;;;;9.01;100.00;96132.97;5090476;28;19997;-82
2023/03/19 03:45:47;;;;;;;;;;;;;;;9.00;100.00;96129.44;5097744;28;19929;-83
2023/03/19 03:48:14;;;;;;;;;;;;;;;9.02;100.00;96138.09;5084047;28;19960;-83
2023/03/19 03:50:43;;;;;;;;;;;;;;;9.06;100.00;96133.94;5095710;28;19924;-83
2023/03/19 03:53:14;;;;;;;;;;;;;;;9.14;100.00;96137.34;5080088;28;19928;-83
2023/03/19 03:55:41;;;;;;;;;;;;;;;9.18;100.00;96130.47;5088088;28;19924;-82
2023/03/19 03:58:08;;;;;;;;;;;;;;;9.17;100.00;96134.22;5084182;28;19946;-83
2023/03/19 04:00:34;;;;;;;;;;;;;;;9.15;100.00;96129.06;5090337;28;19929;-83
2023/03/19 04:03:01;;;;;;;;;;;;;;;9.19;100.00;96129.41;5083169;28;19924;-82
2023/03/19 04:05:28;;;;;;;;;;;;;;;9.24;100.00;96132.25;5085146;28;19986;-82
2023/03/19 04:07:57;;;;;;;;;;;;;;;9.26;100.00;96133.69;5085457;28;19924;-82
2023/03/19 04:10:25;;;;;;;;;;;;;;;9.24;100.00;96124.19;5091095;28;19925;-83
2023/03/19 04:12:52;;;;;;;;;;;;;;;9.25;100.00;96131.22;5081399;28;19942;-83
2023/03/19 04:15:19;;;;;;;;;;;;;;;9.25;100.00;96139.28;5086324;28;19936;-82
2023/03/19 04:17:47;;;;;;;;;;;;;;;9.25;100.00;96128.53;5089070;28;19946;-83
2023/03/19 04:20:16;;;;;;;;;;;;;;;9.26;100.00;96132.88;5072800;28;19968;-83
2023/03/19 04:22:43;;;;;;;;;;;;;;;9.26;100.00;96130.16;5078760;28;19974;-83
2023/03/19 04:25:11;;;;;;;;;;;;;;;9.26;100.00;96133.69;5078564;28;19931;-83
2023/03/19 04:27:39;;;;;;;;;;;;;;;9.25;100.00;96139.28;5086733;28;19931;-83
2023/03/19 04:30:08;;;;;;;;;;;;;;;9.24;100.00;96140.34;5080039;28;19924;-83
2023/03/19 04:32:35;;;;;;;;;;;;;;;9.28;100.00;96142.34;5089822;28;19985;-83
2023/03/19 04:35:03;;;;;;;;;;;;;;;9.27;100.00;96143.38;5090410;28;19924;-83
2023/03/19 04:37:30;;;;;;;;;;;;;;;9.29;100.00;96141.28;5082290;28;19928;-83
2023/03/19 04:39:58;;;;;;;;;;;;;;;9.34;100.00;96135.25;5083911;28;19929;-82
2023/03/19 04:42:26;;;;;;;;;;;;;;;9.35;100.00;96143.09;5084843;28;19967;-82
2023/03/19 04:45:22;;;;;;;;;;;;;;;9.39;100.00;96148.84;5073630;28;19929;-83
2023/03/19 04:47:50;;;;;;;;;;;;;;;9.42;100.00;96148.41;5084657;28;19932;-83
2023/03/19 04:50:17;;;;;;;;;;;;;;;9.44;100.00;96149.00;5092672;28;19924;-83
2023/03/19 04:52:45;;;;;;;;;;;;;;;9.32;100.00;96148.13;5091529;28;19928;-83
2023/03/19 04:55:13;;;;;;;;;;;;;;;9.20;100.00;96150.75;5085256;28;19978;-83
2023/03/19 04:58:03;;;;;;;;;;;;;;;9.21;100.00;96154.25;5081545;28;19931;-83
2023/03/19 05:00:33;;;;;;;;;;;;;;;9.22;100.00;96158.59;5090545;28;19986;-83
2023/03/19 05:03:00;;;;;;;;;;;;;;;9.21;100.00;96154.25;5077274;28;19928;-83
2023/03/19 05:05:29;;;;;;;;;;;;;;;9.20;100.00;96155.31;5105639;28;19928;-83
2023/03/19 05:07:57;;;;;;;;;;;;;;;9.17;100.00;96155.78;5092939;28;20020;-83
2023/03/19 05:10:24;;;;;;;;;;;;;;;9.14;100.00;96164.28;5098948;28;19924;-83
2023/03/19 05:12:51;;;;;;;;;;;;;;;9.08;100.00;96164.16;5091411;28;19990;-82
2023/03/19 05:15:20;;;;;;;;;;;;;;;9.07;100.00;96161.69;5092866;28;19971;-83
2023/03/19 05:17:57;;;;;;;;;;;;;;;9.09;100.00;96168.50;5076627;28;19942;-83
2023/03/19 05:20:30;;;;;;;;;;;;;;;9.09;100.00;96165.81;5088168;28;19933;-83
2023/03/19 05:23:04;;;;;;;;;;;;;;;9.03;100.00;96172.06;5100111;28;19928;-83
2023/03/19 05:25:39;;;;;;;;;;;;;;;8.98;100.00;96169.25;5080940;28;19925;-82
2023/03/19 05:28:08;;;;;;;;;;;;;;;8.95;100.00;96175.06;5083415;28;19928;-83
2023/03/19 05:30:36;;;;;;;;;;;;;;;8.96;100.00;96175.88;5093699;28;19924;-83
2023/03/19 05:33:22;;;;;;;;;;;;;;;8.95;100.00;96177.75;5082560;28;19940;-83
2023/03/19 05:35:50;;;;;;;;;;;;;;;8.98;100.00;96184.56;5088107;28;20149;-83
2023/03/19 05:38:22;;;;;;;;;;;;;;;8.99;100.00;96176.28;5094528;28;20096;-83
2023/03/19 05:40:56;;;;;;;;;;;;;;;9.00;100.00;96177.94;5101616;28;20022;-83
2023/03/19 05:43:33;;;;;;;;;;;;;;;9.04;100.00;96179.09;5076305;28;19951;-83
2023/03/19 05:46:06;;;;;;;;;;;;;;;8.99;100.00;96175.44;5096919;28;19928;-83
2023/03/19 05:48:34;;;;;;;;;;;;;;;8.96;100.00;96179.41;5102219;27;20288;-83
2023/03/19 05:51:02;;;;;;;;;;;;;;;8.92;100.00;96186.31;5088822;28;19932;-83
2023/03/19 05:53:34;;;;;;;;;;;;;;;8.83;100.00;96187.66;5077865;28;19924;-83
2023/03/19 05:56:21;;;;;;;;;;;;;;;8.71;100.00;96198.31;5074225;28;19924;-83
2023/03/19 05:59:01;;;;;;;;;;;;;;;8.73;100.00;96198.91;5080293;28;19999;-83
2023/03/19 06:01:36;;;;;;;;;;;;;;;8.77;100.00;96198.47;5089287;28;20027;-83
2023/03/19 06:04:03;;;;;;;;;;;;;;;8.79;100.00;96199.88;5104201;28;19924;-83
2023/03/19 06:06:30;;;;;;;;;;;;;;;8.79;100.00;96207.97;5104398;28;19989;-83
2023/03/19 06:08:57;;;;;;;;;;;;;;;8.77;100.00;96199.28;5085032;28;20023;-83
2023/03/19 06:11:30;;;;;;;;;;;;;;;8.70;100.00;96214.69;5090708;28;19973;-83
2023/03/19 06:14:18;;;;;;;;;;;;;;;8.63;100.00;96214.75;5088261;28;19988;-82
2023/03/19 06:16:58;;;;;;;;;;;;;;;8.64;100.00;96223.66;5074573;28;19928;-83
2023/03/19 06:19:26;;;;;;;;;;;;;;;8.72;100.00;96218.81;5087767;28;19924;-83
2023/03/19 06:21:53;;;;;;;;;;;;;;;8.80;100.00;96224.94;5086862;28;19925;-83
2023/03/19 06:24:20;;;;;;;;;;;;;;;8.87;100.00;96214.94;5084127;28;20222;-82
2023/03/19 06:26:46;;;;;;;;;;;;;;;8.92;100.00;96213.22;5084220;28;19924;-83
2023/03/19 06:29:15;;;;;;;;;;;;;;;8.98;100.00;96212.34;5077991;28;19928;-82
2023/03/19 06:31:44;;;;;;;;;;;;;;;8.98;100.00;96217.72;5085295;28;19924;-83
2023/03/19 06:34:21;;;;;;;;;;;;;;;9.04;100.00;96216.00;5086174;28;19971;-83
2023/03/19 06:36:48;;;;;;;;;;;;;;;9.11;100.00;96216.72;5087212;28;19963;-83
2023/03/19 06:39:16;;;;;;;;;;;;;;;9.19;100.00;96218.31;5082827;28;20022;-83
2023/03/19 06:41:43;;;;;;;;;;;;;;;9.31;100.00;96221.91;5091724;28;19924;-83
2023/03/19 06:44:16;;;;;;;;;;;;;;;9.41;100.00;96222.22;5086623;28;19977;-83
2023/03/19 06:46:43;;;;;;;;;;;;;;;9.50;99.51;96223.56;5081776;28;19924;-82
2023/03/19 06:49:10;;;;;;;;;;;;;;;9.57;98.92;96218.91;5083462;28;19986;-83
2023/03/19 06:51:38;;;;;;;;;;;;;;;9.65;97.85;96213.19;5094956;28;19924;-82
2023/03/19 06:54:04;;;;;;;;;;;;;;;9.65;95.55;96205.09;5088653;28;19973;-82
2023/03/19 06:56:31;;;;;;;;;;;;;;;9.63;95.66;96209.88;5081996;28;19929;-83
2023/03/19 06:58:58;;;;;;;;;;;;;;;9.65;96.45;96212.38;5079211;28;19978;-82
2023/03/19 07:01:25;;;;;;;;;;;;;;;9.66;97.42;96201.34;5084707;28;19924;-83
2023/03/19 07:03:51;;;;;;;;;;;;;;;9.68;98.03;96203.81;5081042;28;19963;-83
2023/03/19 07:06:18;;;;;;;;;;;;;;;9.69;98.71;96203.59;5078611;28;19958;-83
2023/03/19 07:08:46;;;;;;;;;;;;;;;9.70;99.07;96205.22;5098185;28;19951;-83
2023/03/19 07:11:13;;;;;;;;;;;;;;;9.72;97.24;96202.31;5085075;28;19931;-83
2023/03/19 07:13:39;;;;;;;;;;;;;;;9.75;97.73;96208.06;5073577;28;19975;-81
2023/03/19 07:16:07;;;;;;;;;;;;;;;9.77;98.10;96214.06;5076916;28;19981;-81
2023/03/19 07:18:34;;;;;;;;;;;;;;;9.75;99.83;96221.56;5088349;28;19976;-81
2023/03/19 07:21:01;;;;;;;;;;;;;;;9.64;100.00;96227.72;5084526;28;19960;-81
2023/03/19 07:23:28;;;;;;;;;;;;;;;9.54;100.00;96232.00;5079281;28;19954;-81
2023/03/19 07:25:56;;;;;;;;;;;;;;;9.47;100.00;96237.47;5079583;28;19930;-81
2023/03/19 07:28:22;;;;;;;;;;;;;;;9.43;100.00;96241.69;5096862;28;19975;-81
2023/03/19 07:30:51;;;;;;;;;;;;;;;9.38;100.00;96238.81;5091509;28;19989;-81
2023/03/19 07:33:20;;;;;;;;;;;;;;;9.33;100.00;96238.69;5079721;28;20331;-81
2023/03/19 07:35:47;;;;;;;;;;;;;;;9.28;100.00;96238.50;5078519;28;20015;-81
2023/03/19 07:38:14;;;;;;;;;;;;;;;9.20;100.00;96234.25;5086585;28;19924;-81
2023/03/19 07:40:41;;;;;;;;;;;;;;;9.18;100.00;96238.25;5085983;28;19929;-81
2023/03/19 07:43:09;;;;;;;;;;;;;;;9.21;100.00;96237.78;5071431;28;19924;-81
2023/03/19 07:45:36;;;;;;;;;;;;;;;9.22;100.00;96244.81;5087832;28;19960;-81
2023/03/19 07:48:03;;;;;;;;;;;;;;;9.26;100.00;96241.47;5072494;28;19925;-81
2023/03/19 07:50:30;;;;;;;;;;;;;;;9.26;100.00;96246.84;5083698;28;20024;-81
2023/03/19 07:52:57;;;;;;;;;;;;;;;9.23;100.00;96249.16;5085050;28;19970;-81
2023/03/19 07:55:24;;;;;;;;;;;;;;;9.30;100.00;96241.81;5075777;28;19970;-81
2023/03/19 07:57:51;;;;;;;;;;;;;;;9.30;100.00;96237.25;5083739;28;19964;-81
2023/03/19 08:00:19;;;;;;;;;;;;;;;9.32;100.00;96231.63;5074725;28;19974;-82
2023/03/19 08:02:46;;;;;;;;;;;;;;;9.38;100.00;96225.34;5092395;28;19928;-81
2023/03/19 08:05:13;;;;;;;;;;;;;;;9.44;100.00;96233.34;5103103;27;19924;-81
2023/03/19 08:07:40;;;;;;;;;;;;;;;9.45;100.00;96228.78;5089337;28;19970;-81
2023/03/19 08:10:07;;;;;;;;;;;;;;;9.51;100.00;96232.47;5089071;28;20012;-81
2023/03/19 08:12:39;;;;;;;;;;;;;;;9.58;100.00;96227.81;5084193;28;19931;-81
2023/03/19 08:15:07;;;;;;;;;;;;;;;9.71;100.00;96220.34;5097908;28;19925;-81
2023/03/19 08:17:37;;;;;;;;;;;;;;;9.81;100.00;96217.94;5080439;28;19935;-81
2023/03/19 08:20:04;;;;;;;;;;;;;;;9.90;100.00;96228.41;5079919;28;19929;-82
2023/03/19 08:22:31;;;;;;;;;;;;;;;10.01;100.00;96227.63;5076095;28;19932;-81
2023/03/19 08:24:58;;;;;;;;;;;;;;;10.15;100.00;96227.19;5077994;28;20019;-82
2023/03/19 08:27:25;;;;;;;;;;;;;;;10.31;100.00;96228.44;5091799;28;19928;-81
2023/03/19 08:29:52;;;;;;;;;;;;;;;10.50;100.00;96219.22;5088936;28;19928;-81
2023/03/19 08:32:18;;;;;;;;;;;;;;;10.81;96.88;96222.63;5087943;28;19935;-81
2023/03/19 08:34:47;;;;;;;;;;;;;;;11.14;94.76;96217.47;5089062;28;20026;-81
2023/03/19 08:37:13;;;;;;;;;;;;;;;11.50;89.94;96210.09;5089986;28;19924;-83
2023/03/19 08:39:40;;;;;;;;;;;;;;;11.75;81.90;96210.63;5093126;28;19931;-83
2023/03/19 08:42:07;;;;;;;;;;;;;;;11.98;76.27;96215.97;5076418;28;19939;-81
2023/03/19 08:44:33;;;;;;;;;;;;;;;12.10;72.74;96210.50;5084668;28;19956;-81
2023/03/19 08:47:00;;;;;;;;;;;;;;;12.15;71.83;96207.06;5099985;28;19924;-81
2023/03/19 08:49:27;;;;;;;;;;;;;;;12.24;67.66;96206.44;5092187;28;20002;-81
2023/03/19 08:51:55;;;;;;;;;;;;;;;12.44;64.83;96200.53;5096171;28;19962;-82
2023/03/19 08:54:22;;;;;;;;;;;;;;;12.49;64.97;96206.88;5094229;28;19961;-82
2023/03/19 08:56:48;;;;;;;;;;;;;;;12.66;66.68;96206.88;5078711;28;19951;-82
2023/03/19 08:59:16;;;;;;;;;;;;;;;12.60;65.21;96198.88;5103689;28;19952;-81
2023/03/19 09:01:43;;;;;;;;;;;;;;;12.51;62.50;96201.19;5084084;28;19981;-82
2023/03/19 09:04:10;;;;;;;;;;;;;;;12.54;63.89;96200.69;5090047;28;19963;-82
2023/03/19 09:06:36;;;;;;;;;;;;;;;12.65;62.58;96199.81;5092943;28;19959;-82
2023/03/19 09:09:05;;;;;;;;;;;;;;;12.77;61.98;96195.09;5098964;28;19988;-82
2023/03/19 09:11:31;;;;;;;;;;;;;;;12.95;62.83;96202.16;5089921;28;19963;-82
2023/03/19 09:13:58;;;;;;;;;;;;;;;13.07;60.79;96197.47;5085900;28;19977;-81
2023/03/19 09:16:25;;;;;;;;;;;;;;;13.10;58.61;96201.56;5085956;28;19965;-81
2023/03/19 09:18:52;;;;;;;;;;;;;;;13.20;59.14;96191.69;5079456;28;20017;-82
2023/03/19 09:21:18;;;;;;;;;;;;;;;13.31;60.85;96206.22;5091683;28;19969;-84
2023/03/19 09:23:45;;;;;;;;;;;;;;;13.40;60.91;96196.56;5100905;28;19964;-82
2023/03/19 09:26:13;;;;;;;;;;;;;;;13.45;62.79;96201.22;5085009;28;19963;-82
2023/03/19 09:28:40;;;;;;;;;;;;;;;13.49;64.76;96197.78;5081810;28;19952;-82
2023/03/19 09:31:10;;;;;;;;;;;;;;;13.46;66.00;96198.28;5099063;28;19962;-82
2023/03/19 09:33:37;;;;;;;;;;;;;;;13.48;66.75;96190.72;5089157;28;19954;-82
2023/03/19 09:36:04;;;;;;;;;;;;;;;13.49;66.45;96186.94;5087823;28;20020;-82
2023/03/19 09:38:31;;;;;;;;;;;;;;;13.53;66.59;96193.47;5091073;28;19967;-82
2023/03/19 09:41:05;;;;;;;;;;;;;;;13.57;65.07;96194.63;5088200;28;19960;-82
2023/03/19 09:43:45;;;;;;;;;;;;;;;13.58;64.58;96190.03;5090698;28;19960;-82
2023/03/19 09:46:14;;;;;;;;;;;;;;;13.65;65.08;96196.06;5093345;28;20032;-82
2023/03/19 09:48:43;;;;;;;;;;;;;;;13.67;64.63;96187.69;5095021;28;19991;-82
2023/03/19 09:51:15;;;;;;;;;;;;;;;13.59;64.50;96194.38;5083276;28;19993;-82
2023/03/19 09:53:47;;;;;;;;;;;;;;;13.62;65.42;96186.53;5076717;28;19959;-82
2023/03/19 09:56:18;;;;;;;;;;;;;;;13.62;65.95;96181.09;5083731;28;20069;-81
2023/03/19 09:58:46;;;;;;;;;;;;;;;13.66;64.20;96192.28;5097667;28;19952;-82
2023/03/19 10:01:20;;;;;;;;;;;;;;;13.72;65.03;96185.00;5094847;28;19952;-82
2023/03/19 10:03:53;;;;;;;;;;;;;;;13.79;64.42;96182.91;5084864;28;20008;-81
2023/03/19 10:06:25;;;;;;;;;;;;;;;13.75;63.73;96179.91;5075075;28;19947;-82
2023/03/19 10:09:10;;;;;;;;;;;;;;;13.80;64.78;96176.44;5075211;28;19931;-82
2023/03/19 10:11:44;;;;;;;;;;;;;;;13.86;63.47;96172.72;5079196;28;19967;-82
2023/03/19 10:14:25;;;;;;;;;;;;;;;13.87;64.61;96177.03;5073798;28;19978;-82
2023/03/19 10:16:54;;;;;;;;;;;;;;;13.91;68.47;96173.56;5091227;28;19977;-82
2023/03/19 10:19:22;;;;;;;;;;;;;;;13.91;74.76;96184.44;5088997;28;19960;-82
2023/03/19 10:21:52;;;;;;;;;;;;;;;13.95;75.50;96179.31;5081210;28;19959;-82
2023/03/19 10:24:22;;;;;;;;;;;;;;;13.96;75.83;96179.03;5076778;28;19956;-82
2023/03/19 10:26:50;;;;;;;;;;;;;;;13.98;74.39;96179.63;5077472;28;19959;-82
2023/03/19 10:29:19;;;;;;;;;;;;;;;14.03;71.81;96178.88;5082850;28;19981;-82
2023/03/19 10:31:51;;;;;;;;;;;;;;;14.04;70.50;96172.34;5082630;28;20039;-82
2023/03/19 10:34:31;;;;;;;;;;;;;;;14.07;70.19;96169.13;5079273;28;19956;-84
2023/03/19 10:36:59;;;;;;;;;;;;;;;14.16;68.03;96173.00;5088247;28;19962;-84
2023/03/19 10:39:26;;;;;;;;;;;;;;;14.25;68.60;96167.94;5082246;28;20005;-82
2023/03/19 10:41:58;;;;;;;;;;;;;;;14.22;67.96;96169.25;5074857;28;20013;-82
2023/03/19 10:44:30;;;;;;;;;;;;;;;14.25;69.83;96157.06;5091513;28;20046;-82
2023/03/19 10:47:09;;;;;;;;;;;;;;;14.28;70.70;96162.00;5088878;28;19955;-81
2023/03/19 10:49:36;;;;;;;;;;;;;;;14.33;70.38;96159.31;5088733;28;19949;-82
2023/03/19 10:52:04;;;;;;;;;;;;;;;14.44;68.62;96155.66;5088528;28;19963;-82
2023/03/19 10:54:31;;;;;;;;;;;;;;;14.53;67.84;96153.28;5087784;28;19953;-82
2023/03/19 10:57:00;;;;;;;;;;;;;;;14.59;66.01;96146.78;5072804;28;19966;-82
2023/03/19 10:59:31;;;;;;;;;;;;;;;14.75;65.32;96143.09;5081635;28;19924;-82
2023/03/19 11:01:59;;;;;;;;;;;;;;;14.85;65.20;96140.47;5084844;28;20000;-82
2023/03/19 11:04:28;;;;;;;;;;;;;;;14.96;63.37;96139.44;5088828;28;19959;-82
2023/03/19 11:06:56;;;;;;;;;;;;;;;15.11;60.45;96134.09;5083810;28;19928;-82
2023/03/19 11:09:26;;;;;;;;;;;;;;;15.21;57.58;96132.50;5086918;28;19941;-82
2023/03/19 11:11:57;;;;;;;;;;;;;;;15.25;57.56;96130.88;5102847;27;20019;-82
2023/03/19 11:14:25;;;;;;;;;;;;;;;15.15;56.43;96128.94;5096650;27;19932;-82
2023/03/19 11:16:56;;;;;;;;;;;;;;;15.22;55.82;96117.81;5082564;28;20117;-82
2023/03/19 11:19:23;;;;;;;;;;;;;;;15.28;56.19;96112.13;5096006;28;20066;-82
2023/03/19 11:22:02;;;;;;;;;;;;;;;15.32;55.48;96112.41;5082255;28;19924;-82
2023/03/19 11:24:33;;;;;;;;;;;;;;;15.55;53.01;96105.75;5074354;28;19924;-82
2023/03/19 11:27:01;;;;;;;;;;;;;;;15.68;53.61;96105.22;5089152;28;19935;-82
2023/03/19 11:29:29;;;;;;;;;;;;;;;15.65;52.97;96101.13;5083438;28;20019;-82
2023/03/19 11:32:03;;;;;;;;;;;;;;;15.61;53.89;96105.47;5087321;28;19978;-82
2023/03/19 11:34:35;;;;;;;;;;;;;;;15.57;55.05;96098.94;5075871;28;19978;-82
2023/03/19 11:37:08;;;;;;;;;;;;;;;15.52;55.47;96101.63;5074231;28;19939;-82
2023/03/19 11:39:39;;;;;;;;;;;;;;;15.54;55.51;96091.31;5079287;28;20011;-82
2023/03/19 11:42:23;;;;;;;;;;;;;;;15.64;55.29;96094.06;5081489;28;19960;-82
2023/03/19 11:44:55;;;;;;;;;;;;;;;15.60;56.57;96087.53;5083150;28;19982;-82
2023/03/19 11:47:29;;;;;;;;;;;;;;;15.63;55.96;96080.72;5082134;28;20013;-82
2023/03/19 11:50:18;;;;;;;;;;;;;;;15.67;55.91;96079.91;5085789;28;19929;-82
2023/03/19 11:52:58;;;;;;;;;;;;;;;15.68;56.79;96080.72;5079393;28;19924;-82
2023/03/19 11:55:28;;;;;;;;;;;;;;;15.71;56.70;96082.91;5079258;28;19968;-82
2023/03/19 11:58:02;;;;;;;;;;;;;;;15.80;56.70;96075.88;5093578;28;19924;-82
2023/03/19 12:00:31;;;;;;;;;;;;;;;15.85;54.67;96079.41;5078778;28;19925;-82
2023/03/19 12:03:15;;;;;;;;;;;;;;;15.60;54.65;96081.25;5084016;28;19935;-82
2023/03/19 12:05:46;;;;;;;;;;;;;;;15.61;55.36;96072.81;5108199;28;19973;-82
2023/03/19 12:08:22;;;;;;;;;;;;;;;15.59;54.16;96077.72;5085039;28;20045;-82
2023/03/19 12:10:56;;;;;;;;;;;;;;;15.49;55.36;96072.22;5093329;28;20097;-82
2023/03/19 12:13:41;;;;;;;;;;;;;;;15.56;53.71;96069.28;5102661;28;19925;-82
2023/03/19 12:16:15;;;;;;;;;;;;;;;15.55;55.64;96068.47;5090196;28;19963;-82
2023/03/19 12:18:58;;;;;;;;;;;;;;;15.47;55.88;96063.50;5091822;28;19953;-82
2023/03/19 12:21:29;;;;;;;;;;;;;;;15.48;56.64;96070.59;5099578;28;19935;-82
2023/03/19 12:24:02;;;;;;;;;;;;;;;15.46;54.31;96070.03;5102968;27;19971;-82
2023/03/19 12:26:35;;;;;;;;;;;;;;;15.46;53.53;96065.41;5090095;28;19951;-82
2023/03/19 12:29:05;;;;;;;;;;;;;;;15.46;53.78;96070.03;5096145;28;19964;-82
2023/03/19 12:31:44;;;;;;;;;;;;;;;15.42;52.30;96061.59;5092487;28;20019;-82
2023/03/19 12:34:23;;;;;;;;;;;;;;;15.41;51.78;96065.38;5085301;28;19931;-82
2023/03/19 12:36:52;;;;;;;;;;;;;;;15.48;51.29;96057.00;5091761;28;19932;-82
2023/03/19 12:39:25;;;;;;;;;;;;;;;15.50;51.90;96062.97;5088954;28;19977;-83
2023/03/19 12:41:53;;;;;;;;;;;;;;;15.57;50.46;96063.56;5077572;28;19968;-82
2023/03/19 12:44:23;;;;;;;;;;;;;;;15.61;48.75;96059.22;5085739;28;19949;-82
2023/03/19 12:46:55;;;;;;;;;;;;;;;15.72;48.46;96051.91;5078355;28;20023;-82
2023/03/19 12:49:24;;;;;;;;;;;;;;;15.80;47.42;96060.34;5095994;28;20058;-82
2023/03/19 12:51:55;;;;;;;;;;;;;;;15.90;48.34;96059.56;5081616;28;19948;-82
2023/03/19 12:54:25;;;;;;;;;;;;;;;15.96;48.70;96053.00;5094375;28;19931;-82
2023/03/19 12:56:56;;;;;;;;;;;;;;;15.91;46.72;96057.66;5084739;28;19967;-82
2023/03/19 12:59:28;;;;;;;;;;;;;;;15.84;47.08;96055.16;5105888;27;20087;-82